Time;durP1;ratioP1;P1;durP2;ratioP2;P2;SDS_P1;SDS_P2;PMS_P1;PMS_P2;Temp;Humidity;BMP_temperature;BMP_pressure;BME280_temperature;BME280_humidity;BME280_pressure;Samples;Min_cycle;Max_cycle;Signal;HPM_P1;HPM_P2
2024/01/06 00:02:01;;;;;;;0.40;0.40;;;6.40;99.90;;;;;;5030645;28;20576;-84
2024/01/06 00:04:29;;;;;;;2.15;0.50;;;6.40;99.90;;;;;;5031866;28;20242;-82
2024/01/06 00:06:56;;;;;;;1.13;1.13;;;6.40;99.90;;;;;;5029887;28;20280;-83
2024/01/06 00:09:23;;;;;;;0.65;0.65;;;6.40;99.90;;;;;;5025068;28;20219;-82
2024/01/06 00:11:50;;;;;;;1.85;1.75;;;6.40;99.90;;;;;;5023638;28;20551;-82
2024/01/06 00:14:16;;;;;;;0.40;0.40;;;6.40;99.90;;;;;;5028082;28;20227;-83
2024/01/06 00:16:43;;;;;;;12.20;11.43;;;6.40;99.90;;;;;;5035573;28;20196;-82
2024/01/06 00:19:10;;;;;;;0.40;0.40;;;6.30;99.90;;;;;;5027645;28;20216;-83
2024/01/06 00:21:38;;;;;;;2.15;2.05;;;6.40;99.90;;;;;;5027989;28;20207;-82
2024/01/06 00:24:06;;;;;;;0.60;0.60;;;6.40;99.90;;;;;;5029825;28;20216;-83
2024/01/06 00:26:32;;;;;;;0.40;0.30;;;6.30;99.90;;;;;;5031927;28;20277;-83
2024/01/06 00:28:59;;;;;;;2.58;1.85;;;6.40;99.90;;;;;;5031121;28;20569;-83
2024/01/06 00:31:26;;;;;;;0.40;0.30;;;6.40;99.90;;;;;;5025689;28;20196;-82
2024/01/06 00:33:53;;;;;;;0.93;0.93;;;6.40;99.90;;;;;;5023261;28;20196;-82
2024/01/06 00:36:19;;;;;;;0.60;0.60;;;6.40;99.90;;;;;;5023481;28;20192;-82
2024/01/06 00:38:47;;;;;;;0.50;0.50;;;6.40;99.90;;;;;;5031121;28;20220;-82
2024/01/06 00:41:15;;;;;;;0.82;0.60;;;6.40;99.90;;;;;;5026871;28;20656;-82
2024/01/06 00:43:41;;;;;;;0.40;0.40;;;6.50;99.90;;;;;;5026972;28;20200;-83
2024/01/06 00:46:08;;;;;;;1.55;1.45;;;6.40;99.90;;;;;;5024197;28;20227;-82
2024/01/06 00:48:35;;;;;;;0.40;0.40;;;6.50;99.90;;;;;;5029238;28;20567;-82
2024/01/06 00:51:02;;;;;;;0.40;0.40;;;6.50;99.90;;;;;;5018398;28;20201;-82
2024/01/06 00:53:28;;;;;;;0.40;0.40;;;6.50;99.90;;;;;;5026859;28;20196;-83
2024/01/06 00:55:56;;;;;;;0.40;0.40;;;6.50;99.90;;;;;;5034405;28;20720;-81
2024/01/06 00:58:23;;;;;;;1.10;1.10;;;6.50;99.90;;;;;;5026853;28;20238;-82
2024/01/06 01:00:50;;;;;;;0.47;0.47;;;6.50;99.90;;;;;;5026512;28;20200;-82
2024/01/06 01:03:17;;;;;;;4.05;0.82;;;6.60;99.90;;;;;;5034765;28;20249;-82
2024/01/06 01:05:44;;;;;;;2.15;1.40;;;6.50;99.90;;;;;;5026266;28;20215;-82
2024/01/06 01:08:10;;;;;;;3.25;3.03;;;6.50;99.90;;;;;;5024088;28;20210;-82
2024/01/06 01:10:37;;;;;;;0.40;0.40;;;6.50;99.90;;;;;;5023329;28;20575;-82
2024/01/06 01:13:06;;;;;;;0.40;0.40;;;6.50;99.90;;;;;;5024354;28;20739;-82
2024/01/06 01:15:32;;;;;;;2.90;1.58;;;6.50;99.90;;;;;;5026424;28;20215;-84
2024/01/06 01:17:59;;;;;;;2.65;2.15;;;6.50;99.90;;;;;;5033870;28;20196;-83
2024/01/06 01:20:26;;;;;;;1.58;1.48;;;6.50;99.90;;;;;;5027235;28;20192;-83
2024/01/06 01:22:53;;;;;;;1.58;0.70;;;6.60;99.90;;;;;;5026488;28;20198;-83
2024/01/06 01:25:19;;;;;;;0.40;0.30;;;6.60;99.90;;;;;;5014623;28;20247;-83
2024/01/06 01:27:46;;;;;;;0.40;0.40;;;6.60;99.90;;;;;;5022409;28;20207;-82
2024/01/06 01:30:14;;;;;;;0.40;0.40;;;6.60;99.90;;;;;;5024793;28;20199;-82
2024/01/06 01:32:41;;;;;;;0.40;0.40;;;6.60;99.90;;;;;;5025700;28;20655;-84
2024/01/06 01:35:09;;;;;;;0.40;0.40;;;6.60;99.90;;;;;;5024159;28;20226;-83
2024/01/06 01:37:35;;;;;;;1.77;1.67;;;6.60;99.90;;;;;;5022338;28;20541;-83
2024/01/06 01:40:02;;;;;;;0.40;0.40;;;6.60;99.90;;;;;;5023016;28;20216;-82
2024/01/06 01:42:29;;;;;;;0.40;0.38;;;6.60;99.90;;;;;;5025717;28;20638;-82
2024/01/06 01:44:56;;;;;;;1.67;1.30;;;6.60;99.90;;;;;;5025720;28;20560;-82
2024/01/06 01:47:24;;;;;;;0.40;0.40;;;6.60;99.90;;;;;;5014058;28;20201;-83
2024/01/06 01:49:51;;;;;;;0.40;0.30;;;6.60;99.90;;;;;;5029335;28;20655;-83
2024/01/06 01:52:18;;;;;;;6.15;1.40;;;6.70;99.90;;;;;;5017620;28;20203;-82
2024/01/06 01:54:46;;;;;;;0.40;0.40;;;6.70;99.90;;;;;;5019208;28;20212;-82
2024/01/06 01:57:14;;;;;;;0.50;0.50;;;6.70;99.90;;;;;;5024100;28;20201;-82
2024/01/06 01:59:42;;;;;;;0.40;0.38;;;6.60;99.90;;;;;;5025462;28;20235;-83
2024/01/06 02:02:09;;;;;;;0.93;0.93;;;6.60;99.90;;;;;;5025416;28;20207;-83
2024/01/06 02:04:37;;;;;;;0.85;0.85;;;6.60;99.90;;;;;;5025229;28;20215;-82
2024/01/06 02:07:04;;;;;;;7.95;1.77;;;6.60;99.90;;;;;;5025156;28;20571;-82
2024/01/06 02:09:31;;;;;;;0.40;0.40;;;6.60;99.90;;;;;;5029311;28;20197;-82
2024/01/06 02:11:58;;;;;;;4.60;2.08;;;6.60;99.90;;;;;;5022115;28;20200;-80
2024/01/06 02:14:25;;;;;;;1.13;1.13;;;6.60;99.90;;;;;;5008910;28;20273;-81
2024/01/06 02:16:52;;;;;;;1.67;1.58;;;6.60;99.90;;;;;;5025439;28;20223;-83
2024/01/06 02:19:19;;;;;;;0.40;0.40;;;6.60;99.90;;;;;;5022064;28;20713;-82
2024/01/06 02:21:50;;;;;;;0.60;0.60;;;6.50;99.90;;;;;;5022009;28;20204;-82
2024/01/06 02:24:16;;;;;;;0.40;0.30;;;6.60;99.90;;;;;;5023773;28;20224;-83
2024/01/06 02:26:43;;;;;;;0.40;0.30;;;6.50;99.90;;;;;;5025166;28;20192;-82
2024/01/06 02:29:10;;;;;;;0.40;0.40;;;6.50;99.90;;;;;;5023204;28;20666;-82
2024/01/06 02:31:37;;;;;;;0.40;0.40;;;6.60;99.90;;;;;;5021240;28;20576;-82
2024/01/06 02:34:03;;;;;;;2.05;1.95;;;6.60;99.90;;;;;;5022944;28;20211;-83
2024/01/06 02:36:30;;;;;;;0.40;0.30;;;6.60;99.90;;;;;;5026772;28;20196;-83
2024/01/06 02:38:58;;;;;;;0.40;0.40;;;6.60;99.90;;;;;;5026490;28;20588;-84
2024/01/06 02:41:25;;;;;;;0.40;0.40;;;6.60;99.90;;;;;;5023334;28;20197;-83
2024/01/06 02:43:52;;;;;;;2.15;2.00;;;6.60;99.90;;;;;;5022957;28;20197;-83
2024/01/06 02:46:18;;;;;;;0.60;0.60;;;6.60;99.90;;;;;;5022959;28;20209;-83
2024/01/06 02:48:45;;;;;;;1.30;0.93;;;6.50;99.90;;;;;;5022607;28;20199;-84
2024/01/06 02:51:12;;;;;;;0.73;0.73;;;6.50;99.90;;;;;;5023948;28;20204;-82
2024/01/06 02:53:39;;;;;;;0.50;0.40;;;6.50;99.90;;;;;;5029826;28;20204;-84
2024/01/06 02:56:11;;;;;;;0.40;0.40;;;6.40;99.90;;;;;;5029890;28;20601;-82
2024/01/06 02:58:37;;;;;;;0.50;0.50;;;6.50;99.90;;;;;;5022755;28;20205;-83
2024/01/06 03:01:04;;;;;;;0.40;0.40;;;6.50;99.90;;;;;;5023211;28;20211;-82
2024/01/06 03:03:31;;;;;;;1.40;1.40;;;6.50;99.90;;;;;;5026296;28;20199;-82
2024/01/06 03:05:58;;;;;;;0.70;0.70;;;6.50;99.90;;;;;;5026738;28;20217;-84
2024/01/06 03:08:24;;;;;;;0.40;0.40;;;6.50;99.90;;;;;;5025474;28;20203;-83
2024/01/06 03:10:51;;;;;;;0.50;0.50;;;6.50;99.90;;;;;;5028367;28;20201;-84
2024/01/06 03:13:19;;;;;;;0.80;0.80;;;6.50;99.90;;;;;;5024245;28;20210;-83
2024/01/06 03:15:46;;;;;;;0.40;0.40;;;6.50;99.90;;;;;;5020676;28;20220;-83
2024/01/06 03:18:13;;;;;;;5.00;1.52;;;6.50;99.90;;;;;;5023131;28;20615;-81
2024/01/06 03:20:40;;;;;;;0.40;0.40;;;6.40;99.90;;;;;;5025580;28;20216;-82
2024/01/06 03:23:06;;;;;;;0.40;0.40;;;6.40;99.90;;;;;;5017127;28;20554;-82
2024/01/06 03:25:33;;;;;;;0.90;0.90;;;6.30;99.90;;;;;;5029713;28;20587;-83
2024/01/06 03:28:00;;;;;;;0.40;0.30;;;6.30;99.90;;;;;;5022011;28;20193;-83
2024/01/06 03:30:28;;;;;;;4.10;0.80;;;6.20;99.90;;;;;;5024637;28;20196;-81
2024/01/06 03:32:55;;;;;;;1.85;1.20;;;6.20;99.90;;;;;;5024555;28;20548;-82
2024/01/06 03:35:21;;;;;;;0.40;0.40;;;6.10;99.90;;;;;;5024655;28;20235;-82
2024/01/06 03:37:48;;;;;;;0.88;0.80;;;5.90;99.90;;;;;;5027262;28;20196;-82
2024/01/06 03:40:15;;;;;;;0.93;0.82;;;5.90;99.90;;;;;;5021768;28;20725;-83
2024/01/06 03:42:42;;;;;;;0.47;0.40;;;5.80;99.90;;;;;;5024455;28;20192;-82
2024/01/06 03:45:09;;;;;;;0.40;0.40;;;5.70;99.90;;;;;;5023946;28;20223;-81
2024/01/06 03:47:37;;;;;;;1.35;1.35;;;5.70;99.90;;;;;;5020591;28;20192;-82
2024/01/06 03:50:04;;;;;;;1.50;1.50;;;5.70;99.90;;;;;;5020737;28;20200;-82
2024/01/06 03:52:31;;;;;;;10.70;2.45;;;5.70;99.90;;;;;;5024620;28;20572;-82
2024/01/06 03:54:58;;;;;;;1.42;0.73;;;5.60;99.90;;;;;;5024045;28;20215;-82
2024/01/06 03:57:24;;;;;;;0.88;0.88;;;5.60;99.90;;;;;;5021558;28;20202;-82
2024/01/06 03:59:51;;;;;;;3.78;1.50;;;5.60;99.90;;;;;;5026221;28;20238;-83
2024/01/06 04:02:18;;;;;;;0.50;0.40;;;5.50;99.90;;;;;;5024010;28;20203;-82
2024/01/06 04:04:46;;;;;;;0.50;0.50;;;5.50;99.90;;;;;;5024022;28;20222;-82
2024/01/06 04:07:13;;;;;;;0.80;0.80;;;5.50;99.90;;;;;;5015325;28;20291;-84
2024/01/06 04:09:43;;;;;;;0.40;0.40;;;5.50;99.90;;;;;;5022568;28;20196;-83
2024/01/06 04:12:10;;;;;;;0.40;0.40;;;5.40;99.90;;;;;;5024649;28;20203;-80
2024/01/06 04:14:36;;;;;;;0.40;0.40;;;5.40;99.90;;;;;;5016228;28;20696;-84
2024/01/06 04:17:03;;;;;;;0.40;0.40;;;5.40;99.90;;;;;;5024149;28;20212;-81
2024/01/06 04:19:30;;;;;;;0.40;0.40;;;5.40;99.90;;;;;;5026510;28;20220;-83
2024/01/06 04:21:58;;;;;;;0.77;0.60;;;5.40;99.90;;;;;;5027712;28;20199;-82
2024/01/06 04:24:25;;;;;;;0.40;0.40;;;5.40;99.90;;;;;;5025263;28;20215;-82
2024/01/06 04:26:52;;;;;;;0.40;0.40;;;5.40;99.90;;;;;;5023973;28;20197;-82
2024/01/06 04:29:18;;;;;;;0.40;0.40;;;5.40;99.90;;;;;;5031594;28;20204;-83
2024/01/06 04:31:45;;;;;;;0.40;0.40;;;5.40;99.90;;;;;;5025248;28;20287;-83
2024/01/06 04:34:12;;;;;;;2.00;1.50;;;5.40;99.90;;;;;;5031866;28;20224;-80
2024/01/06 04:36:39;;;;;;;0.50;0.50;;;5.40;99.90;;;;;;5024134;28;20201;-83
2024/01/06 04:39:07;;;;;;;0.60;0.60;;;5.40;99.90;;;;;;5023780;28;20575;-82
2024/01/06 04:41:33;;;;;;;0.60;0.60;;;5.40;99.90;;;;;;5026823;28;20196;-83
2024/01/06 04:44:00;;;;;;;2.97;1.05;;;5.40;99.90;;;;;;5026954;28;20207;-82
2024/01/06 04:46:27;;;;;;;4.65;1.58;;;5.40;99.90;;;;;;5027137;28;20199;-79
2024/01/06 04:48:54;;;;;;;1.85;1.58;;;5.40;99.90;;;;;;5027808;28;20245;-82
2024/01/06 04:51:20;;;;;;;0.50;0.40;;;5.30;99.90;;;;;;5026403;28;20203;-84
2024/01/06 04:53:47;;;;;;;0.40;0.40;;;5.30;99.90;;;;;;5024139;28;20264;-84
2024/01/06 04:56:15;;;;;;;1.02;1.02;;;5.30;99.90;;;;;;5015807;28;20205;-81
2024/01/06 04:58:42;;;;;;;0.40;0.40;;;5.40;99.90;;;;;;5027252;28;20204;-83
2024/01/06 05:01:09;;;;;;;0.40;0.40;;;5.30;99.90;;;;;;5027229;28;20223;-82
2024/01/06 05:03:34;;;;;;;0.40;0.40;;;5.30;99.90;;;;;;5024107;28;20205;-82
2024/01/06 05:06:01;;;;;;;0.40;0.40;;;5.30;99.90;;;;;;5023521;28;20216;-82
2024/01/06 05:08:30;;;;;;;0.40;0.40;;;5.30;99.90;;;;;;5025005;28;20208;-82
2024/01/06 05:10:57;;;;;;;3.92;2.00;;;5.30;99.90;;;;;;5026594;28;20203;-83
2024/01/06 05:13:25;;;;;;;0.50;0.50;;;5.30;99.90;;;;;;5026459;28;20364;-83
2024/01/06 05:15:52;;;;;;;0.60;0.60;;;5.30;99.90;;;;;;5026180;28;20622;-80
2024/01/06 05:18:19;;;;;;;0.40;0.40;;;5.30;99.90;;;;;;5025954;28;20227;-84
2024/01/06 05:20:46;;;;;;;0.40;0.40;;;5.30;99.90;;;;;;5028722;28;20212;-83
2024/01/06 05:23:12;;;;;;;0.40;0.40;;;5.30;99.90;;;;;;5027026;28;20578;-83
2024/01/06 05:25:39;;;;;;;0.77;0.77;;;5.30;99.90;;;;;;5023590;28;20227;-82
2024/01/06 05:28:06;;;;;;;0.50;0.40;;;5.30;99.90;;;;;;5031296;28;20667;-82
2024/01/06 05:30:34;;;;;;;0.40;0.40;;;5.30;99.90;;;;;;5027078;28;20205;-84
2024/01/06 05:33:02;;;;;;;0.50;0.50;;;5.30;99.90;;;;;;5027161;28;20198;-80
2024/01/06 05:35:29;;;;;;;0.40;0.40;;;5.30;99.90;;;;;;5025083;28;20235;-82
2024/01/06 05:37:56;;;;;;;0.40;0.40;;;5.30;99.90;;;;;;5023989;28;20208;-81
2024/01/06 05:40:23;;;;;;;3.10;2.78;;;5.30;99.90;;;;;;5022912;28;20299;-82
2024/01/06 05:42:52;;;;;;;0.93;0.93;;;5.30;99.90;;;;;;5022797;28;20197;-84
2024/01/06 05:45:19;;;;;;;0.40;0.40;;;5.30;99.90;;;;;;5023191;28;20224;-82
2024/01/06 05:47:47;;;;;;;0.40;0.40;;;5.30;99.90;;;;;;5026201;28;20207;-83
2024/01/06 05:50:16;;;;;;;0.50;0.50;;;5.30;99.90;;;;;;5026410;28;20207;-83
2024/01/06 05:52:43;;;;;;;0.50;0.50;;;5.30;99.90;;;;;;5023068;28;20193;-83
2024/01/06 05:55:10;;;;;;;0.40;0.40;;;5.20;99.90;;;;;;5022902;28;20227;-83
2024/01/06 05:57:37;;;;;;;1.02;0.93;;;5.20;99.90;;;;;;5024757;28;20207;-83
2024/01/06 06:00:04;;;;;;;0.50;0.40;;;5.20;99.90;;;;;;5026194;28;20220;-83
2024/01/06 06:02:31;;;;;;;0.40;0.40;;;5.20;99.90;;;;;;5024201;28;20197;-82
2024/01/06 06:04:59;;;;;;;0.40;0.40;;;5.20;99.90;;;;;;5019589;28;20770;-82
2024/01/06 06:07:26;;;;;;;0.40;0.40;;;5.20;99.90;;;;;;5024731;28;20199;-81
2024/01/06 06:09:53;;;;;;;0.40;0.40;;;5.20;99.90;;;;;;5022220;28;20283;-83
2024/01/06 06:12:20;;;;;;;0.63;0.63;;;5.20;99.90;;;;;;5023125;28;20227;-83
2024/01/06 06:14:47;;;;;;;0.50;0.40;;;5.20;99.90;;;;;;5021918;28;20216;-83
2024/01/06 06:17:14;;;;;;;0.40;0.40;;;5.10;99.90;;;;;;5022500;28;20208;-82
2024/01/06 06:19:40;;;;;;;0.63;0.63;;;5.20;99.90;;;;;;5023974;28;20212;-83
2024/01/06 06:22:09;;;;;;;0.40;0.40;;;5.10;99.90;;;;;;5027919;28;20463;-83
2024/01/06 06:24:35;;;;;;;0.50;0.40;;;5.10;99.90;;;;;;5032584;28;20230;-83
2024/01/06 06:27:02;;;;;;;0.40;0.40;;;5.10;99.90;;;;;;5029352;28;20200;-82
2024/01/06 06:29:29;;;;;;;0.60;0.60;;;5.10;99.90;;;;;;5022617;28;20615;-83
2024/01/06 06:31:56;;;;;;;0.40;0.40;;;5.00;99.90;;;;;;5021577;28;20215;-83
2024/01/06 06:34:23;;;;;;;0.40;0.40;;;5.00;99.90;;;;;;5030082;28;20223;-81
2024/01/06 06:36:49;;;;;;;1.67;1.58;;;5.00;99.90;;;;;;5025230;28;20202;-82
2024/01/06 06:39:18;;;;;;;0.40;0.40;;;5.00;99.90;;;;;;5026447;28;20201;-84
2024/01/06 06:41:45;;;;;;;0.60;0.60;;;5.00;99.90;;;;;;5022067;28;20319;-83
2024/01/06 06:44:12;;;;;;;1.23;0.93;;;5.00;99.90;;;;;;5022023;28;20228;-82
2024/01/06 06:46:38;;;;;;;0.40;0.40;;;5.00;99.90;;;;;;5029710;28;20196;-82
2024/01/06 06:49:05;;;;;;;0.40;0.40;;;5.00;99.90;;;;;;5021616;28;20652;-82
2024/01/06 06:51:32;;;;;;;5.82;1.90;;;5.00;99.90;;;;;;5022758;28;20200;-82
2024/01/06 06:53:59;;;;;;;0.73;0.73;;;5.00;99.90;;;;;;5025397;28;20204;-84
2024/01/06 06:56:27;;;;;;;1.25;0.60;;;5.00;99.90;;;;;;5024753;28;20204;-81
2024/01/06 06:58:54;;;;;;;0.47;0.40;;;5.00;99.90;;;;;;5021535;28;20200;-82
2024/01/06 07:01:21;;;;;;;0.82;0.82;;;5.00;99.90;;;;;;5021344;28;20571;-84
2024/01/06 07:03:47;;;;;;;0.40;0.40;;;5.00;99.90;;;;;;5024786;28;20663;-84
2024/01/06 07:06:15;;;;;;;0.40;0.40;;;5.00;99.90;;;;;;5018401;28;20223;-83
2024/01/06 07:08:42;;;;;;;1.90;1.20;;;5.00;99.90;;;;;;5021274;28;20219;-82
2024/01/06 07:11:11;;;;;;;1.20;0.85;;;5.00;99.90;;;;;;5022407;28;20227;-83
2024/01/06 07:13:39;;;;;;;0.40;0.40;;;5.00;99.90;;;;;;5021869;28;20204;-84
2024/01/06 07:16:07;;;;;;;0.82;0.82;;;5.00;99.90;;;;;;5021751;28;20750;-82
2024/01/06 07:18:33;;;;;;;0.40;0.40;;;5.00;99.90;;;;;;5022176;28;20204;-82
2024/01/06 07:21:00;;;;;;;0.40;0.40;;;5.00;99.90;;;;;;5029093;28;20216;-81
2024/01/06 07:23:27;;;;;;;0.40;0.40;;;5.00;99.90;;;;;;5021375;28;20212;-82
2024/01/06 07:25:56;;;;;;;0.88;0.82;;;5.10;99.90;;;;;;5013723;28;20217;-82
2024/01/06 07:28:22;;;;;;;4.47;4.13;;;5.00;99.90;;;;;;5029183;28;20227;-84
2024/01/06 07:30:51;;;;;;;1.13;1.13;;;5.00;99.90;;;;;;5021033;28;20282;-83
2024/01/06 07:33:17;;;;;;;0.40;0.40;;;5.00;99.90;;;;;;5021165;28;20196;-83
2024/01/06 07:35:44;;;;;;;0.40;0.40;;;5.00;99.90;;;;;;5014718;28;20243;-85
2024/01/06 07:38:11;;;;;;;4.00;3.20;;;4.80;99.90;;;;;;5026420;28;20760;-84
2024/01/06 07:40:38;;;;;;;0.40;0.40;;;4.80;99.90;;;;;;5021755;28;20223;-83
2024/01/06 07:43:05;;;;;;;0.50;0.40;;;4.80;99.90;;;;;;5027109;28;20200;-85
2024/01/06 07:45:32;;;;;;;0.88;0.88;;;4.70;99.90;;;;;;5027517;28;20219;-84
2024/01/06 07:48:00;;;;;;;0.40;0.40;;;4.70;99.90;;;;;;5024307;28;20192;-83
2024/01/06 07:50:27;;;;;;;0.40;0.40;;;4.60;99.90;;;;;;5024909;28;20196;-86
2024/01/06 07:52:54;;;;;;;0.40;0.40;;;4.60;99.90;;;;;;5028768;28;20200;-84
2024/01/06 07:55:21;;;;;;;0.90;0.90;;;4.60;99.90;;;;;;5028085;28;20250;-84
2024/01/06 07:57:48;;;;;;;0.50;0.40;;;4.60;99.90;;;;;;5025862;28;20294;-85
2024/01/06 08:00:15;;;;;;;0.40;0.40;;;4.60;99.90;;;;;;5024609;28;20195;-84
2024/01/06 08:02:42;;;;;;;0.40;0.40;;;4.60;99.90;;;;;;5026513;28;20200;-84
2024/01/06 08:05:10;;;;;;;0.50;0.50;;;4.50;99.90;;;;;;5023445;28;20231;-84
2024/01/06 08:07:37;;;;;;;0.60;0.60;;;4.50;99.90;;;;;;5024224;28;20249;-84
2024/01/06 08:10:05;;;;;;;0.70;0.70;;;4.50;99.90;;;;;;5016686;28;20296;-83
2024/01/06 08:12:32;;;;;;;10.18;2.25;;;4.50;99.90;;;;;;5024434;28;20668;-81
2024/01/06 08:14:59;;;;;;;0.40;0.40;;;4.50;99.90;;;;;;5035813;28;20222;-84
2024/01/06 08:17:25;;;;;;;0.47;0.45;;;4.50;99.90;;;;;;5028052;28;20202;-84
2024/01/06 08:19:52;;;;;;;1.55;1.45;;;4.50;99.90;;;;;;5024638;28;20222;-83
2024/01/06 08:22:20;;;;;;;0.50;0.50;;;4.50;99.90;;;;;;5031086;28;20222;-84
2024/01/06 08:24:47;;;;;;;0.73;0.73;;;4.60;99.90;;;;;;5025386;28;20459;-82
2024/01/06 08:27:14;;;;;;;0.40;0.40;;;4.50;99.90;;;;;;5024376;28;20204;-84
2024/01/06 08:29:40;;;;;;;0.50;0.40;;;4.50;99.90;;;;;;5025237;28;20200;-82
2024/01/06 08:32:08;;;;;;;0.63;0.63;;;4.50;99.90;;;;;;5031349;28;20200;-83
2024/01/06 08:34:34;;;;;;;0.50;0.40;;;4.50;99.90;;;;;;5024196;28;20227;-80
2024/01/06 08:37:01;;;;;;;0.77;0.77;;;4.50;99.90;;;;;;5027141;28;20199;-86
2024/01/06 08:39:30;;;;;;;0.40;0.40;;;4.40;99.90;;;;;;5028596;28;20196;-83
2024/01/06 08:41:56;;;;;;;0.40;0.40;;;4.50;99.90;;;;;;5026183;28;20303;-85
2024/01/06 08:44:23;;;;;;;1.83;1.73;;;4.40;99.90;;;;;;5027103;28;20223;-85
2024/01/06 08:46:50;;;;;;;2.55;2.35;;;4.40;99.90;;;;;;5024408;28;20207;-85
2024/01/06 08:49:17;;;;;;;0.82;0.82;;;4.40;99.90;;;;;;5023339;28;20223;-85
2024/01/06 08:51:44;;;;;;;1.67;1.58;;;4.40;99.90;;;;;;5024400;28;20219;-84
2024/01/06 08:54:11;;;;;;;0.40;0.40;;;4.50;99.90;;;;;;5021352;28;20221;-82
2024/01/06 08:56:39;;;;;;;0.40;0.40;;;4.50;99.90;;;;;;5023059;28;20197;-84
2024/01/06 08:59:06;;;;;;;0.40;0.40;;;4.50;99.90;;;;;;5023797;28;20199;-86
2024/01/06 09:01:34;;;;;;;0.40;0.40;;;4.50;99.90;;;;;;5023130;28;20213;-85
2024/01/06 09:04:00;;;;;;;0.40;0.40;;;4.50;99.90;;;;;;5018400;28;20282;-85
2024/01/06 09:06:27;;;;;;;5.47;3.53;;;4.50;99.90;;;;;;5026895;28;20210;-85
2024/01/06 09:08:54;;;;;;;0.50;0.40;;;4.50;99.90;;;;;;5026648;28;20243;-83
2024/01/06 09:11:21;;;;;;;0.50;0.40;;;4.50;99.90;;;;;;5020861;28;20552;-84
2024/01/06 09:13:52;;;;;;;0.50;0.50;;;4.60;99.90;;;;;;5023610;28;20696;-85
2024/01/06 09:16:19;;;;;;;0.50;0.40;;;4.60;99.90;;;;;;5027341;28;20203;-85
2024/01/06 09:18:45;;;;;;;3.03;2.90;;;4.60;99.90;;;;;;5025815;28;20682;-84
2024/01/06 09:21:12;;;;;;;0.40;0.40;;;4.60;99.90;;;;;;5026470;28;20223;-83
2024/01/06 09:23:39;;;;;;;0.40;0.40;;;4.60;99.90;;;;;;5027255;28;20206;-84
2024/01/06 09:26:06;;;;;;;0.60;0.60;;;4.50;99.90;;;;;;5026804;28;20592;-86
2024/01/06 09:28:32;;;;;;;0.40;0.40;;;4.60;99.90;;;;;;5026506;28;20237;-82
2024/01/06 09:31:00;;;;;;;0.40;0.40;;;4.50;99.90;;;;;;5026624;28;20668;-84
2024/01/06 09:33:27;;;;;;;0.40;0.40;;;4.50;99.90;;;;;;5026942;28;20199;-84
2024/01/06 09:35:54;;;;;;;0.40;0.40;;;4.60;99.90;;;;;;5026248;28;20227;-79
2024/01/06 09:38:21;;;;;;;0.93;0.93;;;4.50;99.90;;;;;;5025968;28;20207;-84
2024/01/06 09:40:49;;;;;;;0.60;0.60;;;4.50;99.90;;;;;;5026623;28;20568;-86
2024/01/06 09:43:16;;;;;;;0.40;0.40;;;4.60;99.90;;;;;;5026363;28;20203;-85
2024/01/06 09:45:44;;;;;;;0.40;0.40;;;4.60;99.90;;;;;;5025784;28;20227;-83
2024/01/06 09:48:14;;;;;;;0.40;0.40;;;4.50;99.90;;;;;;5022481;28;20203;-84
2024/01/06 09:50:42;;;;;;;5.90;0.80;;;4.50;99.90;;;;;;5022599;28;20203;-85
2024/01/06 09:53:11;;;;;;;0.40;0.40;;;4.50;99.90;;;;;;5022452;28;20196;-84
2024/01/06 09:55:38;;;;;;;1.25;1.25;;;4.50;99.90;;;;;;5023990;28;20223;-84
2024/01/06 09:58:05;;;;;;;0.40;0.40;;;4.40;99.90;;;;;;5030199;28;20618;-85
2024/01/06 10:00:33;;;;;;;0.40;0.40;;;4.40;99.90;;;;;;5020858;28;20195;-85
2024/01/06 10:03:00;;;;;;;0.50;0.40;;;4.40;99.90;;;;;;5023146;28;20217;-84
2024/01/06 10:05:28;;;;;;;0.60;0.60;;;4.40;99.90;;;;;;5021872;28;20220;-84
2024/01/06 10:07:55;;;;;;;0.50;0.40;;;4.40;99.90;;;;;;5021789;28;20191;-84
2024/01/06 10:10:24;;;;;;;2.03;1.92;;;4.40;99.90;;;;;;5022821;28;20219;-84
2024/01/06 10:12:55;;;;;;;0.40;0.40;;;4.40;99.90;;;;;;5022071;28;20679;-84
2024/01/06 10:15:22;;;;;;;0.40;0.40;;;4.40;99.90;;;;;;5020485;28;20224;-84
2024/01/06 10:17:49;;;;;;;2.25;1.27;;;4.40;99.90;;;;;;5022116;28;20700;-83
2024/01/06 10:20:17;;;;;;;0.40;0.40;;;4.40;99.90;;;;;;5025547;28;20230;-85
2024/01/06 10:22:46;;;;;;;2.05;1.95;;;4.30;99.90;;;;;;5026029;28;20591;-84
2024/01/06 10:25:13;;;;;;;0.40;0.40;;;4.30;99.90;;;;;;5014038;28;20239;-85
2024/01/06 10:27:41;;;;;;;0.40;0.40;;;4.30;99.90;;;;;;5022550;28;20204;-85
2024/01/06 10:30:09;;;;;;;0.47;0.40;;;4.40;99.90;;;;;;5024721;28;20682;-84
2024/01/06 10:32:36;;;;;;;0.50;0.40;;;4.30;99.90;;;;;;5025626;28;20647;-85
2024/01/06 10:35:03;;;;;;;0.50;0.40;;;4.40;99.90;;;;;;5025538;28;20645;-85
2024/01/06 10:37:30;;;;;;;0.50;0.40;;;4.30;99.90;;;;;;5020340;28;20192;-84
2024/01/06 10:40:13;;;;;;;0.40;0.40;;;4.40;99.90;;;;;;5023253;28;20208;-85
2024/01/06 10:42:41;;;;;;;0.40;0.40;;;4.30;99.90;;;;;;5018085;28;20307;-84
2024/01/06 10:45:10;;;;;;;0.50;0.50;;;4.30;99.90;;;;;;5024814;28;20301;-84
2024/01/06 10:47:37;;;;;;;0.70;0.70;;;4.30;99.90;;;;;;5018803;28;20691;-83
2024/01/06 10:50:05;;;;;;;0.40;0.40;;;4.30;99.90;;;;;;5015856;28;20208;-85
2024/01/06 10:52:32;;;;;;;0.40;0.40;;;4.30;99.90;;;;;;5025938;28;20669;-84
2024/01/06 10:54:59;;;;;;;0.40;0.40;;;4.20;99.90;;;;;;5023429;28;20216;-85
2024/01/06 10:57:31;;;;;;;0.50;0.43;;;4.20;99.90;;;;;;5018917;28;20655;-83
2024/01/06 10:59:59;;;;;;;0.50;0.40;;;4.20;99.90;;;;;;5016507;28;20203;-85
2024/01/06 11:02:26;;;;;;;0.47;0.40;;;4.20;99.90;;;;;;5020435;28;20220;-84
2024/01/06 11:04:53;;;;;;;2.42;2.28;;;4.10;99.90;;;;;;5021803;28;20223;-81
2024/01/06 11:07:22;;;;;;;0.50;0.50;;;4.10;99.90;;;;;;5025313;28;20199;-85
2024/01/06 11:09:53;;;;;;;0.57;0.55;;;4.10;99.90;;;;;;5024431;28;20195;-84
2024/01/06 11:12:20;;;;;;;0.50;0.47;;;4.10;99.90;;;;;;5009763;28;20662;-83
2024/01/06 11:14:48;;;;;;;0.80;0.80;;;4.10;99.90;;;;;;5024935;28;20810;-84
2024/01/06 11:17:55;;;;;;;0.50;0.40;;;4.10;99.90;;;;;;5023209;28;20203;-84
2024/01/06 11:20:22;;;;;;;0.77;0.77;;;4.20;99.90;;;;;;5005893;28;20196;-84
2024/01/06 11:22:49;;;;;;;0.95;0.95;;;4.20;99.90;;;;;;5021111;28;20224;-84
2024/01/06 11:25:17;;;;;;;0.40;0.40;;;4.10;99.90;;;;;;5024236;28;20686;-84
2024/01/06 11:27:45;;;;;;;0.40;0.40;;;4.20;99.90;;;;;;5024634;28;20484;-84
2024/01/06 11:30:23;;;;;;;0.75;0.75;;;4.10;99.90;;;;;;5021209;28;20911;-84
2024/01/06 11:32:52;;;;;;;0.43;0.40;;;4.10;99.90;;;;;;5020930;28;20188;-85
2024/01/06 11:35:19;;;;;;;0.50;0.40;;;4.10;99.90;;;;;;5013708;28;20220;-84
2024/01/06 11:37:54;;;;;;;0.43;0.40;;;4.00;99.90;;;;;;5019798;28;20549;-83
2024/01/06 11:40:27;;;;;;;0.90;0.90;;;4.00;99.90;;;;;;5012674;28;20196;-83
2024/01/06 11:43:02;;;;;;;2.03;1.65;;;4.00;99.90;;;;;;5020607;28;20220;-81
2024/01/06 11:45:31;;;;;;;0.40;0.40;;;4.00;99.90;;;;;;5013799;28;20247;-83
2024/01/06 11:47:59;;;;;;;0.60;0.60;;;4.00;99.90;;;;;;5020004;28;20204;-80
2024/01/06 11:50:26;;;;;;;0.40;0.40;;;3.90;99.90;;;;;;5021132;28;20200;-84
2024/01/06 11:52:54;;;;;;;0.80;0.80;;;3.90;99.90;;;;;;5028530;28;20188;-82
2024/01/06 11:55:21;;;;;;;0.50;0.50;;;3.90;99.90;;;;;;5012510;28;20591;-83
2024/01/06 11:57:49;;;;;;;1.45;1.30;;;3.80;99.90;;;;;;5020692;28;20196;-83
2024/01/06 12:00:17;;;;;;;0.40;0.40;;;3.80;99.90;;;;;;5023999;28;20215;-83
2024/01/06 12:02:45;;;;;;;0.50;0.40;;;3.70;99.90;;;;;;5024033;28;20715;-83
2024/01/06 12:05:17;;;;;;;2.20;2.00;;;3.70;99.90;;;;;;5021439;28;20219;-82
2024/01/06 12:07:44;;;;;;;0.40;0.40;;;3.70;99.90;;;;;;5020403;28;20679;-83
2024/01/06 12:10:11;;;;;;;0.50;0.40;;;3.60;99.90;;;;;;5022229;28;20208;-82
2024/01/06 12:12:39;;;;;;;0.40;0.40;;;3.60;99.90;;;;;;5023861;28;20200;-83
2024/01/06 12:15:09;;;;;;;2.78;2.67;;;3.60;99.90;;;;;;5023428;28;20221;-83
2024/01/06 12:17:37;;;;;;;1.50;1.40;;;3.60;99.90;;;;;;5020317;28;20207;-83
2024/01/06 12:20:08;;;;;;;0.40;0.40;;;3.60;99.90;;;;;;5020568;28;20259;-83
2024/01/06 12:22:35;;;;;;;0.50;0.40;;;3.60;99.90;;;;;;5023817;28;20223;-83
2024/01/06 12:25:04;;;;;;;0.40;0.40;;;3.60;99.90;;;;;;5023220;28;20227;-81
2024/01/06 12:27:32;;;;;;;0.73;0.73;;;3.50;99.90;;;;;;5019299;28;20243;-83
2024/01/06 12:29:58;;;;;;;0.40;0.40;;;3.50;99.90;;;;;;5021694;28;20200;-80
2024/01/06 12:32:25;;;;;;;0.40;0.40;;;3.50;99.90;;;;;;5011884;28;20198;-83
2024/01/06 12:34:52;;;;;;;2.45;2.35;;;3.40;99.90;;;;;;5027818;28;20220;-84
2024/01/06 12:37:20;;;;;;;2.15;1.95;;;3.40;99.90;;;;;;5026759;28;20207;-83
2024/01/06 12:39:48;;;;;;;0.50;0.40;;;3.40;99.90;;;;;;5026920;28;20221;-84
2024/01/06 12:42:17;;;;;;;0.50;0.40;;;3.40;99.90;;;;;;5028322;28;20572;-84
2024/01/06 12:44:43;;;;;;;0.40;0.40;;;3.40;99.90;;;;;;5023194;28;20224;-85
2024/01/06 12:47:12;;;;;;;8.27;2.78;;;3.40;99.90;;;;;;5026704;28;20204;-84
2024/01/06 12:49:39;;;;;;;0.50;0.40;;;3.40;99.90;;;;;;5029637;28;20192;-84
2024/01/06 12:52:05;;;;;;;0.50;0.40;;;3.40;99.90;;;;;;5029037;28;20254;-84
2024/01/06 12:54:34;;;;;;;0.40;0.40;;;3.40;99.90;;;;;;5023831;28;20218;-84
2024/01/06 12:57:01;;;;;;;2.95;1.40;;;3.50;99.90;;;;;;5024574;28;20210;-84
2024/01/06 12:59:27;;;;;;;0.50;0.40;;;3.50;99.90;;;;;;5024089;28;20197;-85